Broadus, MT

2:01 AM MST on February 07, 2016 (GMT -0700)
Belle Creek | | Change Station
CLOSE
Current Station
Personal Weather Station
Location: Broadus, MT
Elevation: 3576 ft
Nearby Weather Stations
Active Advisory: High Wind Warning

Elev 3576 ft 45.16 °N, 105.13 °W | Updated 5 minutes ago

Clear
Clear
34.2 °F
Feels Like 23 °F
N
19.7
Wind Variable Wind from North

Today
High -- | Low -- °F
--% Chance of Precip.
Yesterday
High -- | Low -- °F
Precip. -- in
Pressure 30.10 in
Visibility 10.0 miles
Clouds Scattered Clouds 4800 ft
Scattered Clouds 7000 ft
Mostly Cloudy 12000 ft
Windchill 23 °F
Dew Point 16 °F
Humidity 46%
Rainfall 0.00 in
Snow Depth Not available.
7:15 AM 5:16 PM
Waning Crescent, 2% visible
METAR KW43 070835Z AUTO 31011G15KT 10SM SCT048 SCT070 BKN120 00/M06 A3010 RMK AO2
Pressure 30.10 in
Visibility 10.0 miles
Clouds Scattered Clouds 4800 ft
Scattered Clouds 7000 ft
Mostly Cloudy 12000 ft
Windchill 23 °F
Dew Point 16 °F
Humidity 46%
Rainfall 0.00 in
Snow Depth Not available.
7:15 AM 5:16 PM
Waning Crescent, 2% visible
METAR KW43 070835Z AUTO 31011G15KT 10SM SCT048 SCT070 BKN120 00/M06 A3010 RMK AO2

10-Day Weather Forecast

Almanac

Astronomy

Feb. 07, 2016 Rise Set
Actual Time
Civil Twilight
Nautical Twilight
Astronomical Twilight
Moon
Length of Visible Light
Length of Day
Tomorrow will be .
, % of the Moon is Illuminated

Today's Extremes

State Highs State Lows

Community

WunderPhotos

Upload Photos

1,891,171 photos uploaded!

WunderBlog® & News

Nearby

Air Quality

  Air Quality AQ Index Pollutant
Not available.

Snow Depth

Station Depth Elevation

Earthquake Activity

City Distance Mag. Time & Date
Minimum magnitude displayed is 2.5.

Coastal Water Temperatures

Place Temperature

Stations

Nearby Weather Stations

Station Location Temp. Windchill Dew Point Humidity Wind Precip. Elev Updated Type
                   

Watches & Warnings

High Wind Warning
Issued: 8:05 PM MST Feb. 6, 2016 – National Weather Service

... High Wind Warning remains in effect until 8 PM MST Sunday...

* impacts... dangerous cross winds could make travel hazardous for
high profile and Load carrying vehicles... including portions of
I-94... Highway 212 and Highway 2. Any loose objects may cause
property damage.

* Timing... west to northwest winds will weaken this evening before
increasing again around sunrise. Strong winds are expected
tomorrow morning into the afternoon.

* Winds... peak gusts around 60 mph are expected.

Precautionary/preparedness actions...

Winds of these magnitudes can cause property damage without extra
precautions. Motorists in high profile vehicles should use
caution until the winds subside.



Http://weather.Gov/Billings